• Join FlightAware (Why Join?)
  • Login
  • US Flag 
Rudolph Flight #1: Arrived! 
04:31PM EST


 

Airport Tracker/Info


-or-


 

Live Flight TrackerFlight Track Log ✈ N53NW ✈ 24-Aug-2013 ✈ KMSY - KSTL

Flight Track Log - Related Links

Times and Time Zones

All times are in EDT time to prevent confusion due to time zone crossing. See the N53NW flight status page for this flight to view local times or setup timezone preferences in your user account.

Time Position Orientation Groundspeed Altitude Reporting Facility
EDT Latitude Longitude Course Direction KTS MPH feet Rate Location/Type
03:22PM 29.9908 -90.2606 103° East 141 162 300  Level Houston Center
03:23PM 29.9822 -90.2186 103° East 176 203 2,600 2,460 Climbing Houston Center
03:24PM 29.9958 -90.1611 75° East 234 269 5,000 2,400 Climbing Houston Center
03:25PM 30.0656 -90.1925 339° North 282 325 7,600 2,700 Climbing Houston Center
03:26PM 30.1319 -90.2383 329° Northwest 280 322 10,600 2,580 Climbing Houston Center
03:27PM 30.1961 -90.2892 326° Northwest 278 320 13,000 2,340 Climbing Houston Center
03:28PM 30.2633 -90.3425 326° Northwest 290 334 15,400 2,460 Climbing Houston Center
03:29PM 30.3506 -90.3819 339° North 293 337 18,100 2,340 Climbing Houston Center
03:30PM 30.4267 -90.3961 351° North 284 327 20,300 1,980 Climbing Houston Center
03:31PM 30.5031 -90.4086 352° North 278 320 22,200 1,680 Climbing Houston Center
03:32PM 30.5806 -90.4186 354° North 278 320 23,800 1,440 Climbing Houston Center
03:33PM 30.6644 -90.4294 354° North 291 335 25,200 1,380 Climbing Houston Center
03:34PM 30.7517 -90.4267 North 306 352 26,700 1,380 Climbing Houston Center
03:35PM 30.8419 -90.4200 North 320 368 28,100 1,260 Climbing Houston Center
03:36PM 30.9331 -90.4153 North 326 375 29,400 1,260 Climbing Houston Center
03:37PM 31.0264 -90.4106 North 335 386 30,800 1,080 Climbing Houston Center
03:38PM 31.1208 -90.4053 North 338 389 31,700 900 Climbing Houston Center
03:39PM 31.2389 -90.3983 North 351 404 32,700 840 Climbing Houston Center
03:40PM 31.3397 -90.3936 North 360 414 33,500 780 Climbing Houston Center
03:41PM 31.4436 -90.3869 North 371 427 34,300 720 Climbing Houston Center
03:42PM 31.5497 -90.3825 North 379 436 35,000 300 Climbing Houston Center
03:43PM 31.6614 -90.3767 North 396 456 35,000 120 Level Houston Center
03:44PM 31.7783 -90.3706 North 414 476 35,300 480 Climbing Houston Center
03:45PM 31.8928 -90.3631 North 414 476 36,000 420 Climbing Houston Center
03:46PM 31.9767 -90.3597 North 409 471 36,100 900 Climbing Memphis Center
03:47PM 32.0894 -90.3525 North 414 476 37,600 1,440 Climbing Memphis Center
03:48PM 32.2000 -90.3475 North 402 463 39,000 660 Climbing Memphis Center
03:49PM 32.3108 -90.3425 North 396 456 39,000  Level Memphis Center
03:50PM 32.4297 -90.3353 North 407 468 39,000  Level Memphis Center
03:51PM 32.5444 -90.3303 North 407 468 39,000  Level Memphis Center
03:52PM 32.6614 -90.3253 North 407 468 39,000  Level Memphis Center
03:53PM 32.7764 -90.3203 North 407 468 39,000  Level Memphis Center
03:54PM 32.8911 -90.3128 North 407 468 39,000  Level Memphis Center
03:55PM 33.0081 -90.3078 North 407 468 39,000  Level Memphis Center
03:56PM 33.1167 -90.3375 347° North 401 461 39,000  Level Memphis Center
03:57PM 33.2250 -90.3697 346° North 401 461 39,000  Level Memphis Center
03:58PM 33.3336 -90.3994 347° North 401 461 39,000  Level Memphis Center
03:59PM 33.4400 -90.4294 347° North 396 456 39,000  Level Memphis Center
04:00PM 33.5486 -90.4619 346° North 391 450 39,000  Level Memphis Center
04:01PM 33.6550 -90.4894 348° North 391 450 39,000  Level Memphis Center
04:02PM 33.7636 -90.5222 346° North 391 450 39,000  Level Memphis Center
04:03PM 33.8783 -90.5550 347° North 386 444 39,000  Level Memphis Center
04:04PM 33.9825 -90.5825 348° North 386 444 39,000  Level Memphis Center
04:05PM 34.0931 -90.6106 348° North 391 450 39,000  Level Memphis Center
04:06PM 34.1869 -90.6233 354° North 391 450 39,000  Level Memphis Center
04:07PM 34.2956 -90.6086 North 380 437 39,000  Level Memphis Center
04:08PM 34.4000 -90.5711 17° North 386 444 39,000  Level Memphis Center
04:09PM 34.5044 -90.5386 14° North 386 444 39,000  Level Memphis Center
04:10PM 34.6067 -90.5033 16° North 386 444 39,000  Level Memphis Center
04:11PM 34.7172 -90.4658 16° North 376 433 39,000  Level Memphis Center
04:12PM 34.8217 -90.4331 14° North 376 433 39,000  Level Memphis Center
04:13PM 34.9217 -90.3950 17° North 376 433 39,000  Level Memphis Center
04:14PM 35.0242 -90.3622 15° North 376 433 39,000  Level Memphis Center
04:15PM 35.1242 -90.3267 16° North 376 433 39,000  Level Memphis Center
04:16PM 35.2242 -90.2911 16° North 376 433 39,000  Level Memphis Center
04:17PM 35.3139 -90.2603 16° North 376 433 39,000  Level Memphis Center
04:18PM 35.4119 -90.2244 17° North 376 433 39,000  Level Memphis Center
04:19PM 35.5100 -90.1886 17° North 371 427 39,000  Level Memphis Center
04:20PM 35.6100 -90.1528 16° North 371 427 39,000  Level Memphis Center
04:21PM 35.6997 -90.1219 16° North 364 419 39,000  Level Memphis Center
04:22PM 35.7975 -90.0883 16° North 354 407 39,000  Level Memphis Center
04:23PM 35.8975 -90.0519 16° North 359 413 39,000  Level Memphis Center
04:24PM 35.9975 -90.0183 15° North 364 419 39,000  Level Memphis Center
04:25PM 36.0933 -89.9872 15° North 359 413 39,000  Level Memphis Center
04:26PM 36.1914 -89.9506 17° North 359 413 39,000 -600 Level Memphis Center
04:27PM 36.2892 -89.9167 16° North 359 413 37,900 -1,200 Descending Memphis Center
04:28PM 36.3850 -89.8853 15° North 359 413 36,600 -1,320 Descending Memphis Center
04:29PM 36.4786 -89.8486 17° North 359 413 35,300 -1,320 Descending Memphis Center
04:30PM 36.5786 -89.8169 14° North 359 413 34,000 -1,320 Descending Memphis Center
04:31PM 36.6867 -89.7747 17° North 364 419 32,700 -1,320 Descending Memphis Center
04:32PM 36.7928 -89.7350 17° North 376 433 31,400 -1,320 Descending Memphis Center
04:34PM 36.9789 -89.6653 17° North 394 453 29,000 -1,320 Descending Kansas City Center
04:35PM 37.0867 -89.6256 16° North 398 458 27,600 -1,380 Descending Kansas City Center
04:36PM 37.1950 -89.5850 17° North 403 464 26,200 -960 Descending Kansas City Center
04:37PM 37.3186 -89.6236 346° North 389 448 25,700 -960 Descending Kansas City Center
04:38PM 37.4167 -89.6756 337° Northwest 385 443 24,300 -840 Descending Kansas City Center
04:39PM 37.5103 -89.7261 337° Northwest 372 428 24,000 -780 Descending Kansas City Center
04:40PM 37.6003 -89.7772 336° Northwest 369 425 22,800 -1,320 Descending Kansas City Center
04:41PM 37.6944 -89.8292 336° Northwest 369 425 21,300 -1,500 Descending Kansas City Center
04:42PM 37.7881 -89.8797 337° Northwest 368 423 19,800 -1,560 Descending Kansas City Center
04:43PM 37.8942 -89.9369 337° Northwest 362 417 18,200 -1,440 Descending Kansas City Center
04:44PM 37.9903 -89.9908 336° Northwest 353 406 16,900 -1,320 Descending Kansas City Center
04:45PM 38.0789 -90.0406 336° Northwest 349 402 15,500 -960 Descending Kansas City Center
04:46PM 38.1647 -90.0869 337° Northwest 346 398 15,000 -840 Descending Kansas City Center
04:47PM 38.2533 -90.1286 340° North 343 395 13,900 -1,380 Descending Kansas City Center
04:48PM 38.3372 -90.1786 335° Northwest 337 388 12,200 -1,680 Descending Kansas City Center
04:49PM 38.4253 -90.2303 335° Northwest 324 373 10,500 -1,620 Descending Kansas City Center
04:50PM 38.5028 -90.2761 335° Northwest 312 359 9,000 -1,260 Descending Kansas City Center
04:51PM 38.5750 -90.3186 335° Northwest 297 342 8,000 -480 Descending Kansas City Center
04:53PM 38.6539 -90.3672 334° Northwest 288 331 8,000 -840 Level Kansas City Center
04:54PM 38.6886 -90.4664 294° West 294 338 6,300 -2,100 Descending Kansas City Center
04:55PM 38.7203 -90.5533 295° West 277 319 3,800 -1,680 Descending Kansas City Center
04:56PM 38.7697 -90.5789 338° Northwest 236 272 2,900 -660 Descending Kansas City Center
04:57PM 38.7992 -90.5286 53° Northeast 201 231 2,500 -360 Descending Kansas City Center
04:58PM 38.7986 -90.4622 91° East 193 222 2,200 -540 Descending Kansas City Center
04:59PM 38.7758 -90.4144 121° Southeast 170 196 1,400 -720 Descending Kansas City Center
05:00PM 38.7589 -90.3794 122° Southeast 134 154 800 -600 Descending Kansas City Center